Tiempo atmosférico en la estación meteorológica de Madrigal De La Vera, Cáceres (464 m.)



Fecha
DESCASC
Temp. máxima en grados centígrados (hora)
DESCASC
Temp. mínima en grados centígrados (hora)
DESCASC
Temp. media en grados centígrados
DESCASC
Racha de viento máxima en m/sg (hora)
DESCASC
Velocidad máxima media en intervalos de 10 minutos(hora)
DESCASC
Precipitaciones diarias en mm
DESCASC
Precipitaciones de 00:00 a 06:00 en mm
DESCASC
Precipitaciones de 06:00 a 12:00 en mm
DESCASC
Precipitaciones de 12:00 a 18:00 en mm
DESCASC
Precipitaciones de 18:00 a 24:00 en mm
DESCASC
05-04-2020 19.6 (14:40) 11.1 (07:30) 15.4 4.44 (16:40) 2.22 (16:30) 11.2 0 0 0 11.2
04-04-2020 21 (15:00) 8.6 (08:30) 14.8 8.61 (15:20) 3.06 (12:40) 0 0 0 0 0
03-04-2020 20.1 (17:30) 6.5 (07:30) 13.3 4.44 (12:40) 1.67 (15:10) 0 0 0 0 0
02-04-2020 18.5 (18:10) 5.5 (00:00) 12 7.22 (19:30) 2.78 (18:40) 0 0 0 0 0
01-04-2020 15.8 (15:50) 6.7 (00:00) 11.3 6.39 (15:00) 2.22 (16:40) 0.6 0.6 0 0 0
31-03-2020 11.1 (16:00) 3.4 (00:00) 7.3 3.61 (01:10) 1.67 (18:10) 15.6 0.4 6.6 3.2 5.4
30-03-2020 13.1 (00:00) 3.8 (00:00) 8.5 5.28 (20:30) 1.67 (14:10) 5.2 0 0.2 1.2 3.8
29-03-2020 20.6 (17:20) 6.7 (00:00) 13.7 5.83 (17:50) 2.22 (16:50) 0 0 0 0 0
28-03-2020 18.6 (15:30) 4.3 (00:00) 11.5 6.11 (11:40) 2.5 (14:00) 0 0 0 0 0
27-03-2020 14.1 (15:50) 4.2 (00:00) 9.2 11.11 (10:40) 4.72 (10:30) 0 0 0 0 0
26-03-2020 20.2 (16:40) 7.3 (00:00) 13.8 7.78 (18:40) 3.33 (17:50) 0 0 0 0 0
25-03-2020 18.4 (16:20) 8.3 (00:00) 13.3 10.28 (19:00) 2.78 (19:10) 1 0 0 0.6 0.4
24-03-2020 19.4 (15:20) 9.7 (00:00) 14.5 11.67 (12:00) 5 (09:30) 0.2 0 0.2 0 0
23-03-2020 17.2 (13:10) 8.1 (00:00) 12.7 10 (22:20) 4.17 (19:30) 2 0 0 2 0
22-03-2020 16.5 (14:00) 5.3 (07:40) 10.9 4.72 (15:20) 2.22 (14:30) 1 0 0 0.6 0.4
21-03-2020 12.2 (00:00) 6.8 (00:00) 9.5 11.67 (00:40) 5 (01:00) 18.8 0.2 18 0.6 0
20-03-2020 13.8 (20:40) 10.1 (00:00) 12 11.94 (21:20) 5.28 (21:20) 0.6 0 0.4 0.2 0
19-03-2020 16.4 (16:30) 9.3 (00:00) 12.8 7.22 (23:40) 3.33 (23:40) 0 0 0 0 0
18-03-2020 19.3 (15:40) 9.8 (00:00) 14.5 8.06 (10:30) 2.78 (12:10) 0 0 0 0 0
17-03-2020 18.1 (16:00) 3 (00:00) 10.6 11.94 (14:50) 6.11 (15:00) 0 0 0 0 0
16-03-2020 9.3 (00:20) 4 (00:00) 6.7 15.28 (03:50) 6.67 (02:40) 4.6 0 0.4 3.8 0.4
15-03-2020 21.7 (15:20) 8.9 (00:00) 15.3 8.89 (15:00) 3.89 (15:10) 0.8 0 0 0.8 0
14-03-2020 23.6 (16:30) 11.1 (00:00) 17.4 3.61 (11:10) 1.67 (10:50) 0 0 0 0 0
13-03-2020 22.6 (16:30) 11.7 (07:50) 17.2 5.83 (17:20) 2.78 (17:10) 0 0 0 0 0
12-03-2020 26.8 (15:00) 11.5 (00:00) 19.1 4.72 (17:10) 1.94 (01:50) 0 0 0 0 0
11-03-2020 25.6 (15:20) 12.2 (00:00) 18.9 3.33 (13:30) 1.67 (21:20) 0 0 0 0 0
10-03-2020 22.5 (16:40) 9.2 (00:00) 15.8 3.89 (14:30) 1.67 (01:20) 0 0 0 0 0
09-03-2020 19 (16:40) 6.1 (00:00) 12.5 8.61 (04:10) 3.89 (03:20) 0 0 0 0 0

Gráficas

Temp. máximas Temp. mínimas Temp. medias Precipitaciones Rachas de viento máximas Velocidades máximas media en intervalos de 10 minutos

Datos horarios

Fecha y hora oficial Temperatura (ºC) Velocidad del viento (km/h) Dirección del viento Racha (km/h) Dirección de racha Precipitación (mm) Presión (hPa) Tendencia (hPa) Humedad (%)
2020-04-07 23:00:00 13.7 3 Oeste 6 Norte 0 -- -- 90
2020-04-07 22:00:00 14.9 3 Noroeste 5 Noroeste 0 -- -- 88
2020-04-07 21:00:00 15.8 2 Noroeste 4 Norte 0 -- -- 84
2020-04-07 20:00:00 17.6 3 Sudoeste 16 Sudoeste 0 -- -- 76
2020-04-07 19:00:00 18.6 7 Sur 18 Sudoeste 0 -- -- 73
2020-04-07 18:00:00 20.4 4 Sudeste 9 Sur 0 -- -- 69
2020-04-07 17:00:00 18.4 5 Nordeste 10 Norte 0 -- -- 80
2020-04-07 16:00:00 18.5 3 Este 9 Nordeste 0 -- -- 80
2020-04-07 15:00:00 16.9 2 Sudeste 8 Este 0 -- -- 80
2020-04-07 14:00:00 16.4 2 Este 9 Este 0 -- -- 85
2020-04-07 13:00:00 15.1 0 Calma 3 Sudoeste 0 -- -- 89
2020-04-07 12:00:00 14.5 0 Calma 3 Norte 1 -- -- 94
2020-04-07 11:00:00 13.4 0 Calma 3 Este 1.6 -- -- 95
2020-04-07 10:00:00 13 0 Calma 5 Norte 0.8 -- -- 96
2020-04-07 09:00:00 12.5 3 Norte 6 Norte 1.2 -- -- 95
2020-04-07 08:00:00 12.2 2 Norte 5 Noroeste 0 -- -- 96
2020-04-07 07:00:00 12.2 0 Calma 4 Norte 0 -- -- 95
2020-04-07 06:00:00 12.3 2 Norte 5 Oeste 0.2 -- -- 96
2020-04-07 05:00:00 12.2 0 Calma 4 Noroeste 0 -- -- 95
2020-04-07 04:00:00 12.7 0 Calma 6 Noroeste 0.2 -- -- 94
2020-04-07 03:00:00 13 2 Norte 4 Noroeste 0 -- -- 94
2020-04-07 02:00:00 13.2 2 Noroeste 5 Noroeste 0 -- -- 94
2020-04-07 01:00:00 13 0 Calma 4 Norte 0 -- -- 94
2020-04-07 00:00:00 13 2 Norte 5 Norte 0 -- -- 92
2020-04-06 23:00:00 13.4 0 Calma 7 Sudoeste 0 -- -- 92
2020-04-06 22:00:00 13.5 4 Sudoeste 6 Sudoeste 0.2 -- -- 92
2020-04-06 21:00:00 13.9 4 Noroeste 6 Oeste 0 -- -- 87
2020-04-06 20:00:00 14.2 3 Oeste 6 Noroeste 0 -- -- 88
2020-04-06 19:00:00 15.8 0 Calma 9 Sudoeste 0 -- -- 75
2020-04-06 18:00:00 17.8 0 Calma 10 Sudoeste 0 -- -- 66
2020-04-06 17:00:00 18.4 0 Calma 10 Sur 0 -- -- 64
2020-04-06 16:00:00 18.7 3 Este 12 Sur 0 -- -- 65
2020-04-06 15:00:00 17.7 2 Este 9 Sur 0 -- -- 71
2020-04-06 14:00:00 16.5 4 Sudoeste 18 Sur 0 -- -- 70
2020-04-06 13:00:00 17.4 7 Sur 16 Sur 0 -- -- 70
2020-04-06 12:00:00 16 4 Sur 13 Sur 0 -- -- 79
2020-04-06 11:00:00 14.3 0 Calma 8 Sur 0 -- -- 93
2020-04-06 10:00:00 13.5 0 Calma 10 Oeste 0 -- -- 95
2020-04-06 09:00:00 13 3 Sudoeste 11 Sudoeste 0 -- -- 96
2020-04-06 08:00:00 13 0 Calma 6 Oeste 0 -- -- 96
2020-04-06 07:00:00 13.2 0 Calma 6 Sudeste 0 -- -- 96
2020-04-06 06:00:00 13.4 2 Sur 6 Sudoeste 0.2 -- -- 96
2020-04-06 05:00:00 13.4 3 Oeste 10 Sudoeste 0 -- -- 96
2020-04-06 04:00:00 13.4 0 Calma 10 Sudeste 3.8 -- -- 96
2020-04-06 03:00:00 13.5 0 Calma 6 Sudoeste 2.6 -- -- 96
2020-04-06 02:00:00 13.5 0 Calma 7 Sudoeste 1.8 -- -- 96
2020-04-06 01:00:00 13.5 0 Calma 5 Noroeste 2.6 -- -- 96
2020-04-06 00:00:00 13.4 2 Noroeste 7 Norte 0.8 -- -- 95
2020-04-05 23:00:00 13.3 0 Calma 8 Norte 5.2 -- -- 95
2020-04-05 22:00:00 13.2 3 Noroeste 9 Oeste 3.4 -- -- 94
2020-04-05 21:00:00 14 4 Oeste 10 Oeste 1 -- -- 89
2020-04-05 20:00:00 14.3 2 Oeste 11 Nordeste 0.4 -- -- 86
2020-04-05 19:00:00 15.4 4 Oeste 12 Oeste 0.4 -- -- 81
2020-04-05 18:00:00 17.3 2 Oeste 13 Sur 0 -- -- 70
2020-04-05 17:00:00 18.8 5 Este 16 Nordeste 0 -- -- 58
2020-04-05 16:00:00 18.6 4 Este 15 Este 0 -- -- 59
2020-04-05 15:00:00 19.2 6 Este 15 Este 0 -- -- 56
2020-04-05 14:00:00 18.7 4 Este 13 Este 0 -- -- 56
2020-04-05 13:00:00 18.3 4 Este 14 Este 0 -- -- 59
2020-04-05 12:00:00 16.7 2 Este 15 Este 0 -- -- 63
2020-04-05 11:00:00 14.4 3 Este 8 Sudeste 0 -- -- 70
2020-04-05 10:00:00 13.6 0 Calma 5 Este 0 -- -- 73
2020-04-05 09:00:00 12.1 4 Noroeste 6 Noroeste 0 -- -- 74
2020-04-05 08:00:00 11.4 0 Calma 5 Nordeste 0 -- -- 76
2020-04-05 07:00:00 11.4 0 Calma 3 Este 0 -- -- 75
2020-04-05 06:00:00 11.8 0 Calma 4 Noroeste 0 -- -- 77
2020-04-05 05:00:00 12.4 3 Norte 6 Norte 0 -- -- 70
2020-04-05 04:00:00 13.1 2 Oeste 9 Sudoeste 0 -- -- 69
2020-04-05 03:00:00 13.2 3 Noroeste 7 Sudoeste 0 -- -- 64
2020-04-05 02:00:00 13.4 3 Oeste 9 Oeste 0 -- -- 63
2020-04-05 01:00:00 13.3 0 Calma -- -- 0 -- -- 65
2020-04-05 00:00:00 13.9 0 Calma 10 Oeste 0 -- -- 55
2020-04-04 23:00:00 14.6 3 Sudoeste 13 Sudoeste 0 -- -- 54
2020-04-04 22:00:00 14.6 2 Oeste 6 Oeste 0 -- -- 56
2020-04-04 21:00:00 15.1 4 Sudoeste 6 Sur 0 -- -- 59
2020-04-04 20:00:00 16.9 3 Sur 10 Sudeste 0 -- -- 54
2020-04-04 19:00:00 17.6 3 Sudeste 15 Este 0 -- -- 49
2020-04-04 18:00:00 18.7 6 Este 18 Este 0 -- -- 48
2020-04-04 17:00:00 19.6 5 Este 18 Este 0 -- -- 43
2020-04-04 16:00:00 19.9 7 Este 31 Este 0 -- -- 39
2020-04-04 15:00:00 21 8 Sudeste 23 Sudeste 0 -- -- 42
2020-04-04 14:00:00 20.6 10 Este 25 Este 0 -- -- 42
2020-04-04 13:00:00 19.9 9 Este 30 Este 0 -- -- 50
2020-04-04 12:00:00 16.9 8 Este 20 Este 0 -- -- 55
2020-04-04 11:00:00 15.8 4 Sudeste 9 Sudeste 0 -- -- 62
2020-04-04 10:00:00 13 2 Este 4 Nordeste 0 -- -- 62
2020-04-04 09:00:00 9.6 2 Noroeste 6 Sur 0 -- -- 71
2020-04-04 08:00:00 9.5 2 Noroeste 9 Noroeste 0 -- -- 64
2020-04-04 07:00:00 9.8 4 Noroeste 10 Noroeste 0 -- -- 61
2020-04-04 06:00:00 11 4 Norte 13 Norte 0 -- -- 54
2020-04-04 05:00:00 10.7 0 Calma 14 Norte 0 -- -- 61
2020-04-04 04:00:00 11.8 5 Norte 13 Norte 0 -- -- 55
2020-04-04 03:00:00 11.6 5 Noroeste 15 Norte 0 -- -- 55
2020-04-04 02:00:00 11.9 6 Norte 11 Norte 0 -- -- 54
2020-04-04 01:00:00 12.3 4 Norte 9 Norte 0 -- -- 52
2020-04-04 00:00:00 12.5 4 Noroeste 8 Norte 0 -- -- 59
2020-04-03 23:00:00 13.1 4 Noroeste 9 Noroeste 0 -- -- 58
2020-04-03 22:00:00 13 3 Noroeste 9 Oeste 0 -- -- 58
2020-04-03 21:00:00 13.9 3 Noroeste 5 Noroeste 0 -- -- 55
2020-04-03 20:00:00 16.1 0 Calma 10 Este 0 -- -- 52
2020-04-03 19:00:00 18.8 0 Calma 14 Sudeste 0 -- -- 46
2020-04-03 18:00:00 19.5 5 Sur 14 Este 0 -- -- 44
2020-04-03 17:00:00 19.6 5 Sudeste 14 Sudeste 0 -- -- 47
2020-04-03 16:00:00 19.3 5 Sur 16 Este 0 -- -- 46
2020-04-03 15:00:00 19 5 Sudeste 15 Sudeste 0 -- -- 48
2020-04-03 14:00:00 18.6 5 Sudeste 12 Sur 0 -- -- 47
2020-04-03 13:00:00 17.4 5 Sudeste 16 Sur 0 -- -- 50
2020-04-03 12:00:00 15.8 5 Este 10 Este 0 -- -- 53
2020-04-03 11:00:00 13.9 4 Sudeste 9 Este 0 -- -- 61
2020-04-03 10:00:00 10.9 2 Sudeste 6 Sur 0 -- -- 69
2020-04-03 09:00:00 8.7 3 Norte 9 Norte 0 -- -- 68
2020-04-03 08:00:00 6.6 0 Calma 5 Noroeste 0 -- -- 76
2020-04-03 07:00:00 6.9 2 Noroeste 5 Norte 0 -- -- 74
2020-04-03 06:00:00 7.4 2 Noroeste 5 Sudoeste 0 -- -- 74
2020-04-03 05:00:00 7.6 0 Calma 5 Norte 0 -- -- 73
2020-04-03 04:00:00 7.9 0 Calma 5 Sudoeste 0 -- -- 73
2020-04-03 03:00:00 9.2 2 Oeste 7 Norte 0 -- -- 69
2020-04-03 02:00:00 9.4 4 Noroeste 8 Noroeste 0 -- -- 71
2020-04-03 01:00:00 9.5 3 Oeste 8 Oeste 0 -- -- 73
2020-04-03 00:00:00 9.6 3 Oeste 7 Sudoeste 0 -- -- 77
2020-04-02 23:00:00 10.3 3 Oeste 8 Noroeste 0 -- -- 75
2020-04-02 22:00:00 11.1 2 Sudoeste 10 Sudeste 0 -- -- 73
2020-04-02 21:00:00 13.2 4 Sudeste 22 Este 0 -- -- 64
2020-04-02 20:00:00 15.4 8 Norte 26 Norte 0 -- -- 48
2020-04-02 19:00:00 16.9 8 Nordeste 23 Norte 0 -- -- 46
2020-04-02 18:00:00 18.3 5 Sur 19 Sudoeste 0 -- -- 48
2020-04-02 17:00:00 15.8 3 Sudeste 17 Sudoeste 0 -- -- 60
2020-04-02 16:00:00 17.7 7 Sur 19 Sur 0 -- -- 50
2020-04-02 15:00:00 17.2 6 Sudoeste 16 Sudeste 0 -- -- 55
2020-04-02 14:00:00 16.3 6 Sur 16 Sudeste 0 -- -- 55
2020-04-02 13:00:00 15.2 5 Sur 17 Sur 0 -- -- 59
2020-04-02 12:00:00 14.6 5 Sur 14 Sudeste 0 -- -- 61
2020-04-02 11:00:00 12.4 3 Sudeste 9 Sur 0 -- -- 67
2020-04-02 10:00:00 9.8 3 Nordeste 6 Norte 0 -- -- 68
2020-04-02 09:00:00 7.2 3 Noroeste 6 Norte 0 -- -- 76
2020-04-02 08:00:00 5.6 2 Noroeste 7 Oeste 0 -- -- 81
2020-04-02 07:00:00 6.1 0 Calma 9 Norte 0 -- -- 77
2020-04-02 06:00:00 6.1 4 Noroeste 11 Noroeste 0 -- -- 78
2020-04-02 05:00:00 7.2 4 Noroeste 11 Noroeste 0 -- -- 72
2020-04-02 04:00:00 7.7 4 Noroeste 7 Noroeste 0 -- -- 70
2020-04-02 03:00:00 7.6 0 Calma 5 Noroeste 0 -- -- 77
2020-04-02 02:00:00 7.5 0 Calma 11 Noroeste 0 -- -- 70
2020-04-02 01:00:00 7.9 4 Noroeste 6 Norte 0 -- -- 66
2020-04-02 00:00:00 7.9 3 Norte 10 Norte 0 -- -- 68
2020-04-01 23:00:00 8.3 4 Oeste 15 Sur 0 -- -- 73
2020-04-01 22:00:00 8.5 3 Oeste 8 Oeste 0 -- -- 68
2020-04-01 21:00:00 9.2 3 Noroeste 7 Noroeste 0 -- -- 70
2020-04-01 20:00:00 10.7 2 Sudoeste 4 Sudoeste 0 -- -- 68
2020-04-01 19:00:00 12.7 2 Sur 19 Sudoeste 0 -- -- 60
2020-04-01 18:00:00 15.3 4 Oeste 16 Sudeste 0 -- -- 48
2020-04-01 17:00:00 15.3 4 Sur 19 Sur 0 -- -- 47
2020-04-01 16:00:00 15.3 6 Sudeste 20 Sur 0 -- -- 48
2020-04-01 15:00:00 15.3 6 Sur 23 Sur 0 -- -- 52
2020-04-01 14:00:00 13.8 4 Sur 17 Sur 0 -- -- 58
2020-04-01 13:00:00 12.3 4 Sur 14 Sudeste 0 -- -- 71
2020-04-01 12:00:00 11.4 3 Este 8 Este 0 -- -- 87
2020-04-01 11:00:00 9.2 3 Sudeste 8 Sur 0 -- -- 98
2020-04-01 10:00:00 7.4 0 Calma 5 Sudoeste 0 -- -- 98
2020-04-01 09:00:00 7.1 0 Calma 3 Sur 0 -- -- 98
2020-04-01 08:00:00 6.8 0 Calma 14 Sur 0 -- -- 98
2020-04-01 07:00:00 7.2 4 Sudoeste 9 Sudoeste 0 -- -- 97
2020-04-01 06:00:00 7.5 0 Calma 5 Sudeste 0.2 -- -- 97
2020-04-01 05:00:00 7.6 0 Calma 6 Sudoeste 0 -- -- 97
2020-04-01 04:00:00 7.7 3 Noroeste 8 Sudoeste 0 -- -- 97
2020-04-01 03:00:00 7.9 5 Sudoeste 17 Sudoeste 0 -- -- 96
2020-04-01 02:00:00 7.9 0 Calma 6 Noroeste 0.2 -- -- 95
2020-04-01 01:00:00 7.9 3 Noroeste 8 Noroeste 0.2 -- -- 95
2020-04-01 00:00:00 7.9 4 Noroeste 9 Noroeste 1 -- -- 95
2020-03-31 23:00:00 7.9 6 Noroeste 8 Oeste 0 -- -- 96
2020-03-31 22:00:00 8.4 0 Calma 9 Nordeste 2.2 -- -- 94
2020-03-31 21:00:00 9.1 2 Noroeste 8 Noroeste 0.8 -- -- 93
2020-03-31 20:00:00 10 0 Calma 6 Noroeste 0.2 -- -- 94
2020-03-31 19:00:00 9.5 2 Norte 10 Este 1.2 -- -- 94
2020-03-31 18:00:00 9.3 5 Este 11 Norte 1.4 -- -- 93
2020-03-31 17:00:00 10.8 2 Nordeste 7 Norte 0.2 -- -- 87
2020-03-31 16:00:00 11.1 2 Este 6 Sudeste 0 -- -- 86
2020-03-31 15:00:00 8.8 0 Calma 5 Sudoeste 0 -- -- 87
2020-03-31 14:00:00 8.7 3 Sur 5 Sur 0.8 -- -- 86
2020-03-31 13:00:00 7.6 2 Noroeste 6 Oeste 0.8 -- -- 92
2020-03-31 12:00:00 6.6 0 Calma 6 Oeste 0.6 -- -- 92
2020-03-31 11:00:00 5.5 0 Calma 9 Este 1.6 -- -- 97
2020-03-31 10:00:00 4.5 2 Sur 6 Sudoeste 1.8 -- -- 96
2020-03-31 09:00:00 3.7 2 Noroeste 9 Este 1.2 -- -- 96
2020-03-31 08:00:00 3.6 0 Calma 3 Sudoeste 1 -- -- 96
2020-03-31 07:00:00 3.5 0 Calma 10 Sur 0.4 -- -- 95
2020-03-31 06:00:00 3.4 0 Calma 7 Sudoeste 0 -- -- 95
2020-03-31 05:00:00 3.4 3 Sudoeste 6 Sur 0.4 -- -- 95
2020-03-31 04:00:00 3.5 0 Calma 5 Sur 0 -- -- 95
2020-03-31 03:00:00 3.5 0 Calma 4 Este 0 -- -- 95
2020-03-31 02:00:00 3.4 0 Calma 13 Este 0 -- -- 94
2020-03-31 01:00:00 3.6 3 Este 9 Este 0 -- -- 94
2020-03-31 00:00:00 3.8 2 Sudeste 9 Este 0.6 -- -- 95
2020-03-30 23:00:00 4 2 Este 9 Este 0.8 -- -- 95
2020-03-30 22:00:00 4.4 3 Sudeste 14 Este 0.6 -- -- 94
2020-03-30 21:00:00 5.1 2 Este 19 Este 0.8 -- -- 94
2020-03-30 20:00:00 5.7 4 Sudeste 13 Este 0.4 -- -- 91
2020-03-30 19:00:00 6.6 3 Sudeste 10 Este 0.6 -- -- 89
2020-03-30 18:00:00 7.3 3 Sudeste 12 Este 0.6 -- -- 87
2020-03-30 17:00:00 8 2 Este 13 Este 0.6 -- -- 84
2020-03-30 16:00:00 9.8 4 Este 13 Sudeste 0 -- -- 69
2020-03-30 15:00:00 10 5 Este 15 Este 0 -- -- 70
2020-03-30 14:00:00 11 5 Este 18 Este 0 -- -- 71
2020-03-30 13:00:00 9.7 0 Calma 13 Este 0 -- -- 72
2020-03-30 12:00:00 9.5 2 Este 12 Este 0 -- -- 81
2020-03-30 11:00:00 9.4 3 Sur 8 Sur 0 -- -- 84
2020-03-30 10:00:00 9.3 0 Calma 7 Sur 0 -- -- 87
2020-03-30 09:00:00 9.7 3 Sur 9 Oeste 0 -- -- 87
2020-03-30 08:00:00 10.1 4 Oeste 10 Nordeste 0.2 -- -- 79
2020-03-30 07:00:00 9.9 3 Norte 10 Nordeste 0 -- -- 84
2020-03-30 06:00:00 10.1 4 Noroeste 13 Este 0 -- -- 81
2020-03-30 05:00:00 10.5 0 Calma 5 Nordeste 0 -- -- 77
2020-03-30 04:00:00 10.9 0 Calma 4 Nordeste 0 -- -- 75
2020-03-30 03:00:00 11.1 0 Calma 6 Noroeste 0 -- -- 71
2020-03-30 02:00:00 11.5 0 Calma 5 Norte 0 -- -- 69
2020-03-30 01:00:00 12.2 0 Calma 4 Sudeste 0 -- -- 64
2020-03-30 00:00:00 13.1 0 Calma 8 Norte 0 -- -- 54
2020-03-29 23:00:00 13.2 6 Noroeste 8 Noroeste 0 -- -- 50
2020-03-29 22:00:00 13.5 3 Noroeste 6 Oeste 0 -- -- 50
2020-03-29 21:00:00 14.6 3 Oeste 12 Sudoeste 0 -- -- 50
2020-03-29 20:00:00 16.4 3 Sudoeste 13 Sur 0 -- -- 44
2020-03-29 19:00:00 17.8 6 Sudoeste 19 Sudoeste 0 -- -- 39
2020-03-29 18:00:00 19.4 6 Sur 21 Sur 0 -- -- 37
2020-03-29 17:00:00 20.2 7 Sur 19 Sur 0 -- -- 37
2020-03-29 16:00:00 19.9 6 Sur 15 Sur 0 -- -- 36
2020-03-29 15:00:00 18.7 7 Sur 18 Sur 0 -- -- 40
2020-03-29 14:00:00 18.2 5 Sur 16 Sudeste 0 -- -- 44
2020-03-29 13:00:00 16.6 4 Sur 11 Sudeste 0 -- -- 52
2020-03-29 12:00:00 15 4 Sudeste 10 Este 0 -- -- 52
2020-03-29 11:00:00 11.8 3 Este 8 Sudeste 0 -- -- 58
2020-03-29 10:00:00 9.2 0 Calma 3 Este 0 -- -- 70
2020-03-29 09:00:00 7.4 0 Calma 5 Noroeste 0 -- -- 67
2020-03-29 08:00:00 8.1 3 Noroeste 12 Norte 0 -- -- 57
2020-03-29 07:00:00 8.1 4 Norte 8 Norte 0 -- -- 57
2020-03-29 06:00:00 7 0 Calma 4 Norte 0 -- -- 64
2020-03-29 05:00:00 8.6 2 Oeste 8 Noroeste 0 -- -- 57
2020-03-29 03:00:00 9.6 0 Calma 12 Noroeste 0 -- -- 52
2020-03-29 01:00:00 10.8 5 Norte 10 Noroeste 0 -- -- 49
2020-03-29 00:00:00 10.5 6 Noroeste 10 Oeste 0 -- -- 49
2020-03-28 23:00:00 11.1 4 Norte 11 Noroeste 0 -- -- 48
2020-03-28 22:00:00 11.1 4 Noroeste 8 Noroeste 0 -- -- 47
2020-03-28 21:00:00 11.4 4 Noroeste 8 Norte 0 -- -- 47
2020-03-28 20:00:00 12.1 3 Noroeste 5 Noroeste 0 -- -- 46
2020-03-28 19:00:00 13.5 0 Calma 12 Sudeste 0 -- -- 49
2020-03-28 18:00:00 16 6 Este 13 Este 0 -- -- 36
2020-03-28 17:00:00 17.4 5 Este 19 Este 0 -- -- 35
2020-03-28 16:00:00 17.9 4 Sudeste 17 Sudeste 0 -- -- 38
2020-03-28 15:00:00 18.1 6 Este 21 Sudeste 0 -- -- 41
2020-03-28 14:00:00 17.4 9 Este 18 Este 0 -- -- 40
2020-03-28 13:00:00 16.3 5 Sudeste 16 Sudeste 0 -- -- 45
2020-03-28 12:00:00 15.3 5 Este 22 Este 0 -- -- 50
2020-03-28 11:00:00 13.6 6 Sudeste 17 Este 0 -- -- 55
2020-03-28 10:00:00 11.4 5 Este 13 Este 0 -- -- 57
2020-03-28 09:00:00 8.5 2 Nordeste 10 Este 0 -- -- 66
2020-03-28 08:00:00 5.7 2 Norte 6 Oeste 0 -- -- 72
2020-03-28 07:00:00 4.5 0 Calma 13 Nordeste 0 -- -- 77
2020-03-28 06:00:00 4.4 2 Oeste 8 Norte 0 -- -- 79
2020-03-28 05:00:00 5.1 3 Norte 11 Noroeste 0 -- -- 73
2020-03-28 04:00:00 4.8 2 Noroeste 8 Noroeste 0 -- -- 78
2020-03-28 03:00:00 4.7 0 Calma 11 Noroeste 0 -- -- 77
2020-03-28 02:00:00 5.4 4 Noroeste 9 Oeste 0 -- -- 75
2020-03-28 01:00:00 5.8 2 Este 12 Este 0 -- -- 74
2020-03-28 00:00:00 6.2 0 Calma 15 Este 0 -- -- 71
2020-03-27 23:00:00 6.7 0 Calma 12 Este 0 -- -- 66
2020-03-27 22:00:00 7.2 3 Norte 10 Nordeste 0 -- -- 61
2020-03-27 21:00:00 7.3 4 Noroeste 8 Oeste 0 -- -- 63
2020-03-27 20:00:00 8.2 2 Este 37 Este 0 -- -- 62
2020-03-27 19:00:00 9.9 11 Este 28 Este 0 -- -- 54
2020-03-27 18:00:00 11.2 8 Este 30 Este 0 -- -- 52
2020-03-27 17:00:00 13.3 10 Este 31 Este 0 -- -- 51
2020-03-27 16:00:00 14.1 11 Este 29 Este 0 -- -- 44
2020-03-27 15:00:00 11.8 10 Este 33 Este 0 -- -- 50
2020-03-27 14:00:00 10.5 13 Sudeste 37 Este 0 -- -- 58
2020-03-27 13:00:00 10.3 13 Este 37 Este 0 -- -- 58
2020-03-27 12:00:00 9.7 13 Este 33 Este 0 -- -- 60
2020-03-27 11:00:00 9.7 14 Este 40 Este 0 -- -- 57
2020-03-27 10:00:00 9.8 12 Este 35 Este 0 -- -- 58
2020-03-27 09:00:00 7.7 4 Sudeste 11 Este 0 -- -- 61
2020-03-27 08:00:00 5.4 4 Sudoeste 9 Sudoeste 0 -- -- 69
2020-03-27 07:00:00 4.8 0 Calma 10 Sudoeste 0 -- -- 69
2020-03-27 06:00:00 5.2 2 Sur 8 Sudeste 0 -- -- 68
2020-03-27 05:00:00 6.4 4 Noroeste 8 Noroeste 0 -- -- 60
2020-03-27 04:00:00 6 3 Sudoeste 6 Sudoeste 0 -- -- 64
2020-03-27 03:00:00 7.2 2 Sudeste 12 Sudeste 0 -- -- 62
2020-03-27 02:00:00 7.7 3 Oeste 8 Norte 0 -- -- 57
2020-03-27 01:00:00 8 3 Norte 11 Oeste 0 -- -- 54
2020-03-27 00:00:00 8.4 2 Oeste 6 Sudoeste 0 -- -- 53
2020-03-26 23:00:00 9.3 2 Sudoeste 8 Oeste 0 -- -- 51
2020-03-26 22:00:00 11.8 6 Sur 14 Sur 0 -- -- 42
2020-03-26 21:00:00 13.3 5 Norte 14 Nordeste 0 -- -- 32
2020-03-26 20:00:00 14.8 4 Nordeste 24 Norte 0 -- -- 32
2020-03-26 19:00:00 16.2 11 Norte 28 Norte 0 -- -- 28
2020-03-26 18:00:00 17.5 12 Norte 27 Norte 0 -- -- 28
2020-03-26 17:00:00 19.8 5 Norte 19 Noroeste 0 -- -- 26
2020-03-26 16:00:00 19.8 4 Sudoeste 15 Sur 0 -- -- 43
2020-03-26 15:00:00 19.8 4 Sudeste 12 Este 0 -- -- 45
2020-03-26 14:00:00 18.9 5 Sudeste 15 Sudeste 0 -- -- 50
2020-03-26 13:00:00 17.5 4 Este 13 Sur 0 -- -- 56
2020-03-26 12:00:00 17.2 6 Sudeste 14 Sudeste 0 -- -- 59
2020-03-26 11:00:00 15.1 4 Este 10 Este 0 -- -- 70
2020-03-26 10:00:00 13 3 Este 12 Este 0 -- -- 76
2020-03-26 09:00:00 10.2 2 Nordeste 8 Norte 0 -- -- 84
2020-03-26 08:00:00 8.3 0 Calma 6 Este 0 -- -- 95
2020-03-26 07:00:00 7.7 3 Norte 10 Oeste 0 -- -- 94
2020-03-26 06:00:00 7.7 3 Nordeste 8 Nordeste 0 -- -- 94
2020-03-26 05:00:00 8.2 3 Noroeste 9 Nordeste 0 -- -- 94
2020-03-26 04:00:00 8.4 0 Calma 8 Oeste 0 -- -- 92
2020-03-26 03:00:00 9.6 2 Sudoeste 21 Nordeste 0 -- -- 89
2020-03-26 02:00:00 12.4 9 Norte 23 Norte 0 -- -- 57
2020-03-26 01:00:00 9.9 3 Noroeste 10 Noroeste 0 -- -- 86
2020-03-26 00:00:00 9.9 3 Noroeste 6 Noroeste 0 -- -- 88
2020-03-25 23:00:00 11.1 2 Sudeste 8 Nordeste 0 -- -- 81
2020-03-25 22:00:00 13.3 3 Sur 18 Sudoeste 0 -- -- 69
2020-03-25 21:00:00 13.3 6 Sudeste 23 Nordeste 0 -- -- 66
2020-03-25 20:00:00 12.9 6 Oeste 32 Noroeste 0 -- -- 64
2020-03-25 19:00:00 13.1 9 Norte 37 Norte 0.4 -- -- 67
2020-03-25 18:00:00 14.6 6 Norte 16 Norte 0.4 -- -- 73
2020-03-25 17:00:00 16.5 5 Nordeste 18 Nordeste 0 -- -- 62
2020-03-25 16:00:00 17.4 3 Este 11 Sur 0 -- -- 63
2020-03-25 15:00:00 16.6 3 Este 15 Sudoeste 0.2 -- -- 65
2020-03-25 14:00:00 17.1 4 Sur 17 Sudoeste 0 -- -- 57
2020-03-25 13:00:00 16 6 Sur 17 Sur 0 -- -- 62
2020-03-25 12:00:00 15 7 Sur 19 Sudoeste 0 -- -- 61
2020-03-25 11:00:00 14.8 5 Sur 13 Este 0 -- -- 63
2020-03-25 10:00:00 13.4 4 Sudeste 10 Sudeste 0 -- -- 69
2020-03-25 09:00:00 11.3 3 Sudeste 8 Sudeste 0 -- -- 72
2020-03-25 08:00:00 9.2 2 Norte 5 Norte 0 -- -- 78
2020-03-25 07:00:00 8.6 2 Norte 4 Noroeste 0 -- -- 81
2020-03-25 06:00:00 8.3 0 Calma 5 Sudoeste 0 -- -- 81
2020-03-25 05:00:00 9 3 Sudoeste 8 Sudoeste 0 -- -- 81
2020-03-25 04:00:00 9.9 3 Sudoeste 6 Sur 0 -- -- 79
2020-03-25 03:00:00 11 0 Calma 7 Sudeste 0 -- -- 76
2020-03-25 02:00:00 11.4 0 Calma 5 Nordeste 0 -- -- 75
2020-03-25 01:00:00 11.8 3 Este 11 Este 0 -- -- 68
2020-03-25 00:00:00 11.9 2 Nordeste 10 Nordeste 0 -- -- 73
2020-03-24 23:00:00 12.1 4 Este 12 Este 0 -- -- 74
2020-03-24 22:00:00 12.4 3 Este 12 Este 0 -- -- 71
2020-03-24 21:00:00 12.5 2 Oeste 5 Noroeste 0 -- -- 73
2020-03-24 20:00:00 12.9 2 Norte 10 Este 0 -- -- 72
2020-03-24 19:00:00 13.7 3 Este 9 Este 0 -- -- 66
2020-03-24 18:00:00 13.6 4 Noroeste 24 Este 0 -- -- 72
2020-03-24 17:00:00 14.9 3 Nordeste 32 Este 0 -- -- 66
2020-03-24 16:00:00 16.1 4 Sudeste 24 Este 0 -- -- 62
2020-03-24 15:00:00 18.2 10 Este 34 Este 0 -- -- 53
2020-03-24 14:00:00 17.3 7 Este 27 Este 0 -- -- 56
2020-03-24 13:00:00 16.6 10 Este 35 Este 0 -- -- 54
2020-03-24 12:00:00 17.4 16 Este 42 Nordeste 0 -- -- 49
2020-03-24 11:00:00 15.3 14 Este 40 Este 0 -- -- 56
2020-03-24 10:00:00 16 17 Este 37 Nordeste 0 -- -- 54
2020-03-24 09:00:00 11.7 4 Este 25 Noroeste 0 -- -- 73
2020-03-24 08:00:00 9.7 0 Calma 17 Este 0.2 -- -- 88
2020-03-24 07:00:00 11.4 8 Este 26 Este 0 -- -- 73
2020-03-24 06:00:00 12.5 11 Este 38 Este 0 -- -- 62
2020-03-24 05:00:00 12.7 12 Este 36 Este 0 -- -- 62
2020-03-24 04:00:00 12.4 9 Este 36 Este 0 -- -- 65
2020-03-24 03:00:00 12.1 9 Este 36 Nordeste 0 -- -- 67
2020-03-24 02:00:00 12.4 14 Este 30 Este 0 -- -- 68
2020-03-24 01:00:00 12.4 9 Este 26 Este 0 -- -- 69
2020-03-24 00:00:00 11.9 10 Este 32 Este 0 -- -- 71
2020-03-23 23:00:00 12.3 13 Este 36 Este 0 -- -- 68
2020-03-23 22:00:00 11.7 5 Nordeste 15 Nordeste 0 -- -- 70
2020-03-23 21:00:00 12.5 4 Este 30 Este 0 -- -- 66
2020-03-23 20:00:00 13 11 Este 32 Este 0 -- -- 63
2020-03-23 19:00:00 14 6 Este 18 Este 0 -- -- 57
2020-03-23 18:00:00 14.8 5 Sudeste 31 Este 0 -- -- 56
2020-03-23 17:00:00 16.1 11 Este 30 Este 0 -- -- 51
2020-03-23 16:00:00 15.7 13 Este 34 Este 0 -- -- 50
2020-03-23 15:00:00 14.3 3 Este 27 Este 0.4 -- -- 82
2020-03-23 14:00:00 11.4 10 Este 29 Sudeste 1.6 -- -- 82
2020-03-23 13:00:00 16.8 8 Este 30 Este 0 -- -- 59
2020-03-23 12:00:00 13.9 4 Sudeste 20 Nordeste 0 -- -- 71
2020-03-23 11:00:00 13.4 8 Este 21 Nordeste 0 -- -- 75
2020-03-23 10:00:00 11.3 7 Este 17 Nordeste 0 -- -- 81
2020-03-23 09:00:00 9.8 0 Calma 9 Noroeste 0 -- -- 89
2020-03-23 08:00:00 8.4 4 Noroeste 8 Oeste 0 -- -- 91
2020-03-23 07:00:00 8.5 0 Calma 4 Noroeste 0 -- -- 90
2020-03-23 06:00:00 8.8 0 Calma 8 Noroeste 0 -- -- 91
2020-03-23 05:00:00 8.7 2 Oeste 7 Noroeste 0 -- -- 92
2020-03-23 04:00:00 9.1 2 Oeste 8 Noroeste 0 -- -- 90
2020-03-23 03:00:00 8.9 5 Noroeste 8 Noroeste 0 -- -- 94
2020-03-23 02:00:00 8.8 2 Oeste 8 Sudoeste 0 -- -- 93
2020-03-23 01:00:00 8.8 3 Noroeste 6 Noroeste 0 -- -- 93
2020-03-23 00:00:00 9.3 2 Sudoeste 10 Este 0 -- -- 94
2020-03-22 23:00:00 9.6 4 Sudoeste 10 Sur 0.2 -- -- 93
2020-03-22 22:00:00 9.5 3 Norte 9 Noroeste 0 -- -- 92
2020-03-22 21:00:00 9 4 Oeste 7 Oeste 0 -- -- 92
2020-03-22 20:00:00 9.7 3 Noroeste 6 Oeste 0 -- -- 92
2020-03-22 19:00:00 10.4 2 Oeste 7 Oeste 0.2 -- -- 89
2020-03-22 18:00:00 11.1 0 Calma 15 Este 0.4 -- -- 87
2020-03-22 17:00:00 12.4 0 Calma 10 Este 0.2 -- -- 81
2020-03-22 16:00:00 16 4 Sudeste 17 Sur 0 -- -- 61
2020-03-22 15:00:00 16.4 4 Sudeste 16 Sudeste 0 -- -- 59
2020-03-22 14:00:00 16.5 5 Sudeste 14 Sudeste 0 -- -- 60
2020-03-22 13:00:00 14.2 2 Sudeste 13 Sudeste 0 -- -- 67
2020-03-22 12:00:00 13.2 5 Este 16 Sudeste 0 -- -- 67
2020-03-22 11:00:00 12.7 5 Sudeste 15 Sudeste 0 -- -- 69
2020-03-22 10:00:00 10 3 Este 11 Sudeste 0 -- -- 78
2020-03-22 09:00:00 8 4 Sur 8 Sur 0 -- -- 88
2020-03-22 08:00:00 5.6 2 Sudoeste 6 Noroeste 0 -- -- 95
2020-03-22 07:00:00 5.4 0 Calma 7 Noroeste 0 -- -- 92
2020-03-22 06:00:00 6.1 4 Noroeste 8 Noroeste 0 -- -- 90
2020-03-22 05:00:00 6.3 4 Norte 8 Norte 0 -- -- 87
2020-03-22 04:00:00 6.1 0 Calma 5 Noroeste 0 -- -- 88
2020-03-22 03:00:00 7.4 0 Calma 6 Oeste 0 -- -- 85
2020-03-22 02:00:00 8.1 5 Sudoeste 9 Sur 0 -- -- 81
2020-03-22 01:00:00 8.1 2 Sur 8 Sur 0 -- -- 84
2020-03-22 00:00:00 7.6 2 Noroeste 8 Norte 0 -- -- 78
2020-03-21 23:00:00 6.9 4 Norte 11 Norte 0 -- -- 83
2020-03-21 22:00:00 6.9 3 Noroeste 8 Noroeste 0 -- -- 86
2020-03-21 21:00:00 7.6 4 Noroeste 9 Noroeste 0 -- -- 87
2020-03-21 20:00:00 7.8 2 Noroeste 7 Este 0 -- -- 87
2020-03-21 19:00:00 10.1 2 Sudeste 10 Este 0 -- -- 79
2020-03-21 18:00:00 11.3 3 Nordeste 9 Este 0 -- -- 74
2020-03-21 17:00:00 11.4 3 Este 12 Este 0 -- -- 74
2020-03-21 16:00:00 11.4 4 Este 10 Este 0 -- -- 74
2020-03-21 15:00:00 10.9 4 Sur 9 Sur 0 -- -- 78
2020-03-21 14:00:00 10.3 0 Calma 10 Norte 0 -- -- 85
2020-03-21 13:00:00 8.9 7 Norte 21 Norte 0.6 -- -- 90
2020-03-21 12:00:00 7.6 6 Norte 16 Norte 1 -- -- 90
2020-03-21 11:00:00 7.2 3 Noroeste 10 Oeste 3 -- -- 93
2020-03-21 10:00:00 7 5 Sudoeste 25 Sudoeste 7.2 -- -- 94
2020-03-21 09:00:00 8.4 6 Sur 19 Sudeste 4 -- -- 96
2020-03-21 08:00:00 8.5 7 Sur 31 Sur 2 -- -- 94
2020-03-21 07:00:00 9.3 2 Sur 15 Sudeste 0.8 -- -- 93
2020-03-21 06:00:00 9.8 5 Sudoeste 13 Sudoeste 0 -- -- 89
2020-03-21 05:00:00 9.7 2 Sudoeste 12 Este 0.2 -- -- 87
2020-03-21 04:00:00 10.2 4 Sudeste 21 Este 0 -- -- 83
2020-03-21 03:00:00 10.2 8 Este 29 Este 0 -- -- 83
2020-03-21 02:00:00 10.9 10 Este 32 Este 0 -- -- 79
2020-03-21 01:00:00 11.9 18 Este 42 Este 0 -- -- 71
2020-03-21 00:00:00 12.2 11 Sudeste 41 Este 0 -- -- 70
2020-03-20 23:00:00 12.8 15 Este 42 Este 0 -- -- 67
2020-03-20 22:00:00 13.3 18 Este 43 Este 0 -- -- 67
2020-03-20 21:00:00 13.7 14 Este 37 Este 0 -- -- 67
2020-03-20 20:00:00 13 3 Sudeste 13 Este 0 -- -- 72
2020-03-20 19:00:00 12.5 3 Sudoeste 6 Sudoeste 0 -- -- 77
2020-03-20 18:00:00 13.1 2 Oeste 10 Sur 0 -- -- 77
2020-03-20 17:00:00 13.2 0 Calma 8 Noroeste 0 -- -- 74
2020-03-20 16:00:00 12.7 3 Noroeste 10 Norte 0 -- -- 78
2020-03-20 15:00:00 12.2 2 Noroeste 12 Nordeste 0 -- -- 79
2020-03-20 14:00:00 12 2 Noroeste 8 Nordeste 0 -- -- 77
2020-03-20 13:00:00 11.2 2 Este 14 Este 0.2 -- -- 81
2020-03-20 12:00:00 11.4 3 Este 14 Sudeste 0 -- -- 84
2020-03-20 11:00:00 11.7 5 Sudeste 14 Este 0 -- -- 80
2020-03-20 10:00:00 10.6 0 Calma 10 Oeste 0.4 -- -- 90
2020-03-20 09:00:00 11.1 0 Calma 4 Sudoeste 0 -- -- 84
2020-03-20 08:00:00 10.7 2 Oeste 11 Sudeste 0 -- -- 81
2020-03-20 07:00:00 10.9 3 Sudeste 10 Sudeste 0 -- -- 80
2020-03-20 06:00:00 11 3 Sur 7 Sur 0 -- -- 80
2020-03-20 05:00:00 10.5 0 Calma 6 Sudoeste 0 -- -- 82
2020-03-20 04:00:00 10.3 2 Sudoeste 6 Noroeste 0 -- -- 82
2020-03-20 03:00:00 11 2 Oeste 13 Sur 0 -- -- 77
2020-03-20 02:00:00 11.5 4 Este 11 Este 0 -- -- 75
2020-03-20 01:00:00 12 5 Este 17 Nordeste 0 -- -- 74
2020-03-20 00:00:00 12.8 5 Nordeste 26 Este 0 -- -- 70
2020-03-19 23:00:00 13.4 6 Sudeste 16 Nordeste 0 -- -- 67
2020-03-19 22:00:00 13.7 2 Sudeste 12 Este 0 -- -- 64
2020-03-19 21:00:00 13.1 4 Norte 12 Norte 0 -- -- 67
2020-03-19 20:00:00 13.1 4 Noroeste 13 Noroeste 0 -- -- 69
2020-03-19 19:00:00 14.3 5 Norte 12 Norte 0 -- -- 64
2020-03-19 18:00:00 15 4 Nordeste 15 Este 0 -- -- 64
2020-03-19 17:00:00 16 7 Este 18 Este 0 -- -- 58
2020-03-19 16:00:00 16 8 Este 19 Nordeste 0 -- -- 59
2020-03-19 15:00:00 15.5 5 Este 20 Este 0 -- -- 58
2020-03-19 14:00:00 15.6 8 Este 24 Este 0 -- -- 59
2020-03-19 13:00:00 14.8 6 Este 22 Este 0 -- -- 62
2020-03-19 12:00:00 14.5 8 Este 23 Este 0 -- -- 60
2020-03-19 11:00:00 13.9 7 Este 19 Este 0 -- -- 61
2020-03-19 10:00:00 12.6 4 Este 13 Este 0 -- -- 64
2020-03-19 09:00:00 10.5 2 Sudeste 9 Sur 0 -- -- 70
2020-03-19 08:00:00 9.4 3 Sur 6 Sudoeste 0 -- -- 78
2020-03-19 07:00:00 10.2 3 Sudoeste 8 Noroeste 0 -- -- 74
2020-03-19 06:00:00 10.6 3 Sur 12 Este 0 -- -- 69
2020-03-19 05:00:00 11.4 2 Este 17 Este 0 -- -- 67
2020-03-19 04:00:00 11.9 0 Calma 13 Este 0 -- -- 71
2020-03-19 03:00:00 12.1 0 Calma 12 Este 0 -- -- 71
2020-03-19 02:00:00 12.6 4 Este 17 Norte 0 -- -- 71
2020-03-19 01:00:00 12.7 4 Noroeste 13 Nordeste 0 -- -- 70
2020-03-19 00:00:00 13.3 2 Este 9 Este 0 -- -- 68
2020-03-18 23:00:00 13.3 3 Sur 10 Sudoeste 0 -- -- 69
2020-03-18 22:00:00 14 4 Sudoeste 12 Sur 0 -- -- 67
2020-03-18 21:00:00 14.5 4 Noroeste 15 Norte 0 -- -- 61
2020-03-18 20:00:00 14.8 4 Noroeste 16 Este 0 -- -- 62
2020-03-18 19:00:00 15.9 2 Este 24 Este 0 -- -- 62
2020-03-18 18:00:00 17.5 5 Este 15 Este 0 -- -- 54
2020-03-18 17:00:00 17.7 5 Este 23 Nordeste 0 -- -- 53
2020-03-18 16:00:00 19.1 9 Este 23 Este 0 -- -- 48
2020-03-18 15:00:00 18.7 6 Sudeste 20 Sudeste 0 -- -- 50
2020-03-18 14:00:00 18.4 6 Sudeste 28 Este 0 -- -- 52
2020-03-18 13:00:00 17.5 8 Este 25 Sudeste 0 -- -- 57
2020-03-18 12:00:00 17 6 Sudeste 22 Este 0 -- -- 58
2020-03-18 11:00:00 16.9 4 Sudeste 29 Este 0 -- -- 58
2020-03-18 10:00:00 14.3 6 Este 17 Este 0 -- -- 64
2020-03-18 09:00:00 12.6 2 Este 15 Este 0 -- -- 66
2020-03-18 08:00:00 11 6 Nordeste 23 Este 0 -- -- 72
2020-03-18 07:00:00 9.9 4 Sudoeste 11 Sudoeste 0 -- -- 82
2020-03-18 06:00:00 10.1 4 Oeste 14 Sur 0 -- -- 82
2020-03-18 05:00:00 11.6 4 Sudoeste 10 Sur 0 -- -- 75
2020-03-18 04:00:00 11.8 2 Este 17 Este 0 -- -- 75
2020-03-18 03:00:00 12.5 4 Sur 14 Este 0 -- -- 74
2020-03-18 02:00:00 12.2 5 Oeste 13 Norte 0 -- -- 73
2020-03-18 01:00:00 13.7 7 Nordeste 25 Este 0 -- -- 69
2020-03-18 00:00:00 13.9 6 Sudeste 28 Este 0 -- -- 69
2020-03-17 23:00:00 13.9 2 Sudoeste 15 Este 0 -- -- 67
2020-03-17 22:00:00 14.8 5 Sudeste 35 Este 0 -- -- 66
2020-03-17 21:00:00 15.5 14 Este 39 Este 0 -- -- 63
2020-03-17 20:00:00 15.6 12 Este 34 Este 0 -- -- 60
2020-03-17 19:00:00 16.3 15 Este 36 Este 0 -- -- 60
2020-03-17 18:00:00 16.6 14 Este 31 Este 0 -- -- 55
2020-03-17 17:00:00 16.2 13 Este 33 Este 0 -- -- 57
2020-03-17 16:00:00 18.1 14 Este 37 Este 0 -- -- 52
2020-03-17 15:00:00 16.3 22 Este 43 Este 0 -- -- 51
2020-03-17 14:00:00 17.1 13 Este 39 Este 0 -- -- 53
2020-03-17 13:00:00 16.5 16 Este 41 Este 0 -- -- 53
2020-03-17 12:00:00 15.4 14 Este 35 Este 0 -- -- 53
2020-03-17 11:00:00 13.7 10 Sudeste 26 Este 0 -- -- 59
2020-03-17 10:00:00 9.7 3 Oeste 11 Sur 0 -- -- 70
2020-03-17 09:00:00 7 3 Nordeste 11 Oeste 0 -- -- 80
2020-03-17 08:00:00 3.2 3 Oeste 10 Oeste 0 -- -- 88
2020-03-17 07:00:00 3 4 Oeste 12 Sudoeste 0 -- -- 88
2020-03-17 06:00:00 3.2 4 Oeste 10 Sudeste 0 -- -- 85
2020-03-17 05:00:00 4.2 4 Este 16 Este 0 -- -- 79
2020-03-17 04:00:00 5 5 Noroeste 13 Norte 0 -- -- 70
2020-03-17 03:00:00 4.4 2 Noroeste 14 Norte 0 -- -- 77
2020-03-17 02:00:00 4.3 3 Noroeste 11 Noroeste 0 -- -- 77
2020-03-17 01:00:00 4 4 Noroeste 13 Norte 0 -- -- 84
2020-03-17 00:00:00 4 3 Oeste 10 Norte 0 -- -- 89
2020-03-16 23:00:00 5.4 5 Norte 15 Norte 0 -- -- 83
2020-03-16 22:00:00 5.6 3 Nordeste 14 Este 0.4 -- -- 89
2020-03-16 21:00:00 5.2 3 Noroeste 7 Noroeste 0 -- -- 92
2020-03-16 20:00:00 5.1 3 Oeste 21 Este 0 -- -- 91
2020-03-16 19:00:00 6 3 Nordeste 15 Noroeste 0 -- -- 88
2020-03-16 18:00:00 6.1 3 Noroeste 12 Sudeste 0.2 -- -- 88
2020-03-16 17:00:00 6.1 3 Este 19 Norte 0.6 -- -- 87
2020-03-16 16:00:00 5.9 7 Norte 19 Norte 1.2 -- -- 81
2020-03-16 15:00:00 6.3 8 Norte 27 Noroeste 0.8 -- -- 74
2020-03-16 14:00:00 6.6 8 Norte 33 Norte 0.2 -- -- 71
2020-03-16 13:00:00 6.5 9 Norte 31 Norte 0.8 -- -- 81
2020-03-16 12:00:00 6 10 Norte 29 Norte 0.4 -- -- 76
2020-03-16 11:00:00 6.7 9 Nordeste 29 Norte 0 -- -- 68
2020-03-16 10:00:00 8 12 Norte 31 Norte 0 -- -- 58
2020-03-16 09:00:00 8.1 11 Norte 29 Norte 0 -- -- 54
2020-03-16 08:00:00 6.6 6 Norte 26 Noroeste 0 -- -- 55
2020-03-16 07:00:00 6.5 8 Noroeste 24 Norte 0 -- -- 57
2020-03-16 06:00:00 6.4 8 Norte 36 Norte 0 -- -- 58
2020-03-16 05:00:00 7.2 12 Norte 42 Nordeste 0 -- -- 53
2020-03-16 04:00:00 7.1 23 Norte 55 Nordeste 0 -- -- 53
2020-03-16 03:00:00 7.1 22 Nordeste 48 Norte 0 -- -- 55
2020-03-16 02:00:00 8.6 17 Norte 40 Noroeste 0 -- -- 49
2020-03-16 01:00:00 9.2 9 Norte 36 Norte 0 -- -- 55
2020-03-16 00:00:00 9.2 2 Noroeste 12 Sudoeste 0 -- -- 79
2020-03-15 23:00:00 9.2 4 Sudoeste 15 Oeste 0 -- -- 77
2020-03-15 22:00:00 10.3 0 Calma 10 Oeste 0 -- -- 71
2020-03-15 21:00:00 11.6 0 Calma 15 Sur 0 -- -- 73
2020-03-15 20:00:00 13.9 5 Sur 16 Sudoeste 0 -- -- 73
2020-03-15 19:00:00 15.5 6 Sudoeste 19 Sudoeste 0 -- -- 70
2020-03-15 18:00:00 15.8 4 Sudoeste 22 Sudoeste 0.4 -- -- 77
2020-03-15 17:00:00 18.1 10 Sudoeste 27 Sudoeste 0.4 -- -- 59
2020-03-15 16:00:00 19.8 7 Sudoeste 27 Sudoeste 0 -- -- 55
2020-03-15 15:00:00 21.4 13 Sur 32 Sudoeste 0 -- -- 50
2020-03-15 14:00:00 20.7 7 Sur 15 Sudeste 0 -- -- 55
2020-03-15 13:00:00 18.3 3 Sudoeste 12 Sur 0 -- -- 54
2020-03-15 12:00:00 18.5 6 Sur 15 Sur 0 -- -- 55
2020-03-15 11:00:00 15.6 3 Este 13 Sudoeste 0 -- -- 71
2020-03-15 10:00:00 16.1 2 Sudeste 6 Este 0 -- -- 69
2020-03-15 09:00:00 13.3 2 Oeste 6 Norte 0 -- -- 77
2020-03-15 08:00:00 12 3 Noroeste 6 Norte 0 -- -- 76
2020-03-15 07:00:00 11.7 0 Calma 10 Sudoeste 0 -- -- 77
2020-03-15 06:00:00 11.7 5 Sudoeste 12 Sudoeste 0 -- -- 73
2020-03-15 05:00:00 12.5 3 Sudoeste 5 Sudoeste 0 -- -- 70
2020-03-15 04:00:00 12.9 0 Calma 7 Oeste 0 -- -- 65
2020-03-15 03:00:00 12.8 3 Norte 8 Nordeste 0 -- -- 64
2020-03-15 02:00:00 12.9 2 Oeste 6 Norte 0 -- -- 65
2020-03-15 01:00:00 15.2 5 Noroeste 8 Noroeste 0 -- -- 58
2020-03-15 00:00:00 15.6 4 Noroeste 6 Noroeste 0 -- -- 58
2020-03-14 23:00:00 15.4 2 Norte 6 Norte 0 -- -- 56
2020-03-14 22:00:00 16.3 5 Noroeste 8 Noroeste 0 -- -- 58
2020-03-14 21:00:00 16.5 4 Noroeste 8 Norte 0 -- -- 59
2020-03-14 20:00:00 17.1 3 Noroeste 5 Sudoeste 0 -- -- 60
2020-03-14 19:00:00 17.9 4 Sudoeste 9 Sur 0 -- -- 61
2020-03-14 18:00:00 21 4 Sur 13 Sur 0 -- -- 48
2020-03-14 17:00:00 23.2 3 Sur 11 Sur 0 -- -- 44
2020-03-14 16:00:00 23.1 3 Sur 12 Sur 0 -- -- 41
2020-03-14 15:00:00 22.3 5 Este 12 Sudeste 0 -- -- 48
2020-03-14 14:00:00 21.2 4 Sur 11 Sudeste 0 -- -- 54
2020-03-14 13:00:00 20.3 4 Sur 10 Este 0 -- -- 54
2020-03-14 12:00:00 18.2 4 Sur 13 Sur 0 -- -- 60
2020-03-14 11:00:00 17 6 Sur 13 Sudeste 0 -- -- 63
2020-03-14 10:00:00 16.6 4 Sudeste 8 Nordeste 0 -- -- 68
2020-03-14 09:00:00 13.9 0 Calma 5 Noroeste 0 -- -- 74
2020-03-14 08:00:00 11.1 0 Calma 7 Oeste 0 -- -- 92
2020-03-14 07:00:00 11.2 0 Calma 5 Oeste 0 -- -- 91
2020-03-14 06:00:00 11.4 6 Noroeste 9 Oeste 0 -- -- 87
2020-03-14 05:00:00 11.8 0 Calma 6 Noroeste 0 -- -- 84
2020-03-14 04:00:00 13.1 4 Noroeste 6 Noroeste 0 -- -- 83
2020-03-14 03:00:00 12.7 0 Calma 4 Noroeste 0 -- -- 85
2020-03-14 02:00:00 13.8 0 Calma 7 Noroeste 0 -- -- 82
2020-03-14 01:00:00 14.4 3 Noroeste 6 Noroeste 0 -- -- 79
2020-03-14 00:00:00 14.4 4 Noroeste 5 Norte 0 -- -- 80
2020-03-13 23:00:00 14.8 0 Calma 5 Norte 0 -- -- 80
2020-03-13 22:00:00 15.6 0 Calma 7 Este 0 -- -- 76
2020-03-13 21:00:00 16.3 3 Norte 6 Norte 0 -- -- 74
2020-03-13 20:00:00 16.6 0 Calma 5 Sudoeste 0 -- -- 74
2020-03-13 19:00:00 18.5 4 Sudoeste 10 Sudoeste 0 -- -- 68
2020-03-13 18:00:00 20.2 5 Sudoeste 21 Sur 0 -- -- 62
2020-03-13 17:00:00 21.9 7 Sur 15 Sudeste 0 -- -- 53
2020-03-13 16:00:00 21.8 5 Sur 20 Sudeste 0 -- -- 52
2020-03-13 15:00:00 21.8 8 Sur 19 Sudeste 0 -- -- 57
2020-03-13 14:00:00 21.2 6 Sur 20 Sudeste 0 -- -- 58
2020-03-13 13:00:00 20.7 6 Sur 17 Sur 0 -- -- 61
2020-03-13 12:00:00 19.6 5 Sur 14 Sudeste 0 -- -- 64
2020-03-13 11:00:00 18.5 4 Sudeste 13 Este 0 -- -- 65
2020-03-13 10:00:00 16.7 4 Sudeste 10 Este 0 -- -- 68
2020-03-13 09:00:00 13.5 2 Este 4 Sudoeste 0 -- -- 71
2020-03-13 08:00:00 11.7 0 Calma 6 Norte 0 -- -- 76
2020-03-13 07:00:00 12.3 3 Norte 7 Norte 0 -- -- 68
2020-03-13 06:00:00 13 0 Calma 5 Noroeste 0 -- -- 68
2020-03-13 05:00:00 13.2 0 Calma 5 Noroeste 0 -- -- 68
2020-03-13 04:00:00 13.5 0 Calma 4 Noroeste 0 -- -- 68
2020-03-13 03:00:00 14.7 4 Noroeste 6 Noroeste 0 -- -- 62
2020-03-13 02:00:00 15 2 Noroeste 4 Norte 0 -- -- 63
2020-03-13 01:00:00 16.4 3 Noroeste 10 Sudoeste 0 -- -- 58
2020-03-13 00:00:00 17.2 3 Noroeste 8 Sudoeste 0 -- -- 54
2020-03-12 23:00:00 18.5 2 Sudoeste 6 Oeste 0 -- -- 47
2020-03-12 22:00:00 18.9 3 Noroeste 7 Oeste 0 -- -- 43
2020-03-12 21:00:00 18.8 3 Noroeste 8 Oeste 0 -- -- 47
2020-03-12 20:00:00 19.6 3 Noroeste 9 Noroeste 0 -- -- 51
2020-03-12 19:00:00 21.7 3 Oeste 17 Sudoeste 0 -- -- 48
2020-03-12 18:00:00 24.1 6 Sudoeste 17 Sudoeste 0 -- -- 40
2020-03-12 17:00:00 26.2 5 Sur 11 Sur 0 -- -- 36
2020-03-12 16:00:00 26.6 4 Sudoeste 14 Sur 0 -- -- 34
2020-03-12 15:00:00 26.8 4 Sur 11 Sur 0 -- -- 33
2020-03-12 14:00:00 25 3 Sudeste 9 Sudeste 0 -- -- 42
2020-03-12 13:00:00 23.7 5 Sur 11 Sur 0 -- -- 47
2020-03-12 12:00:00 22.6 5 Sudeste 12 Sur 0 -- -- 50
2020-03-12 11:00:00 20.9 4 Este 8 Este 0 -- -- 58
2020-03-12 10:00:00 17.5 0 Calma 7 Noroeste 0 -- -- 64
2020-03-12 09:00:00 14.7 4 Oeste 7 Noroeste 0 -- -- 67
2020-03-12 08:00:00 11.9 4 Noroeste 9 Oeste 0 -- -- 73
2020-03-12 07:00:00 12.8 3 Oeste 8 Noroeste 0 -- -- 68
2020-03-12 06:00:00 17.1 6 Noroeste 9 Oeste 0 -- -- 52
2020-03-12 05:00:00 17.2 0 Calma 8 Norte 0 -- -- 52
2020-03-12 04:00:00 17.5 4 Noroeste 10 Norte 0 -- -- 42
2020-03-12 03:00:00 17.1 7 Noroeste 9 Oeste 0 -- -- 57
2020-03-12 02:00:00 17.2 6 Noroeste 9 Noroeste 0 -- -- 63
2020-03-12 01:00:00 16.4 2 Norte 5 Norte 0 -- -- 60
2020-03-12 00:00:00 17.4 3 Noroeste 6 Noroeste 0 -- -- 58
2020-03-11 23:00:00 16.6 2 Oeste 7 Norte 0 -- -- 58
2020-03-11 22:00:00 18.1 4 Noroeste 10 Noroeste 0 -- -- 61
2020-03-11 21:00:00 18.1 0 Calma 6 Sur 0 -- -- 68
2020-03-11 20:00:00 18.9 5 Sudoeste 8 Sur 0 -- -- 67
2020-03-11 19:00:00 20.5 0 Calma 5 Sudoeste 0 -- -- 63
2020-03-11 18:00:00 22.7 4 Sudoeste 7 Sur 0 -- -- 57
2020-03-11 17:00:00 23.6 0 Calma 10 Sudoeste 0 -- -- 53
2020-03-11 16:00:00 24.3 5 Sur 12 Sudeste 0 -- -- 46
2020-03-11 15:00:00 25.4 4 Sudeste 10 Sudeste 0 -- -- 43
2020-03-11 14:00:00 24 4 Sur 12 Sudeste 0 -- -- 46
2020-03-11 13:00:00 23.3 4 Este 10 Este 0 -- -- 48
2020-03-11 12:00:00 21.8 4 Este 10 Este 0 -- -- 53
2020-03-11 11:00:00 20.2 4 Este 7 Este 0 -- -- 55
2020-03-11 10:00:00 17.9 3 Este 5 Este 0 -- -- 64
2020-03-11 09:00:00 14.5 0 Calma 2 Sudoeste 0 -- -- 65
2020-03-11 08:00:00 12.5 0 Calma 3 Noroeste 0 -- -- 71
2020-03-11 07:00:00 12.7 0 Calma 5 Noroeste 0 -- -- 69
2020-03-11 06:00:00 13.6 3 Noroeste 5 Noroeste 0 -- -- 65
2020-03-11 05:00:00 13.8 0 Calma 7 Noroeste 0 -- -- 64
2020-03-11 04:00:00 14 3 Noroeste 7 Norte 0 -- -- 64
2020-03-11 03:00:00 13.5 0 Calma 6 Noroeste 0 -- -- 67
2020-03-11 02:00:00 14.3 4 Noroeste 8 Norte 0 -- -- 64
2020-03-11 01:00:00 14.3 4 Norte 9 Norte 0 -- -- 65
2020-03-11 00:00:00 14.4 2 Norte 6 Norte 0 -- -- 65
2020-03-10 23:00:00 16 4 Noroeste 6 Noroeste 0 -- -- 59
2020-03-10 22:00:00 16.2 4 Noroeste 8 Noroeste 0 -- -- 59
2020-03-10 21:00:00 15.9 0 Calma 11 Noroeste 0 -- -- 59
2020-03-10 20:00:00 16.8 4 Noroeste 6 Noroeste 0 -- -- 54
2020-03-10 19:00:00 17.5 3 Sudoeste 11 Sur 0 -- -- 53
2020-03-10 18:00:00 20.1 4 Sur 10 Sur 0 -- -- 46
2020-03-10 17:00:00 21.8 3 Sudeste 13 Sudeste 0 -- -- 42
2020-03-10 16:00:00 21.8 4 Sudeste 12 Sur 0 -- -- 41
2020-03-10 15:00:00 21 3 Sudeste 14 Sur 0 -- -- 42
2020-03-10 14:00:00 20.8 6 Sur 13 Sudoeste 0 -- -- 42
2020-03-10 13:00:00 19.6 4 Este 10 Este 0 -- -- 45
2020-03-10 12:00:00 17.5 4 Sudeste 9 Este 0 -- -- 45
2020-03-10 11:00:00 16.1 3 Este 10 Sur 0 -- -- 56
2020-03-10 10:00:00 13.7 5 Sur 9 Sudoeste 0 -- -- 58
2020-03-10 09:00:00 10.4 6 Noroeste 9 Noroeste 0 -- -- 64
2020-03-10 08:00:00 9.8 0 Calma 7 Noroeste 0 -- -- 58
2020-03-10 07:00:00 9.7 0 Calma 5 Noroeste 0 -- -- 58
2020-03-10 06:00:00 10.9 3 Norte 4 Norte 0 -- -- 54
2020-03-10 05:00:00 11.8 3 Noroeste 7 Noroeste 0 -- -- 52
2020-03-10 04:00:00 11.5 2 Noroeste 4 Sur 0 -- -- 54
2020-03-10 03:00:00 11.8 2 Noroeste 9 Noroeste 0 -- -- 58
2020-03-10 02:00:00 12.2 3 Norte 12 Norte 0 -- -- 56
2020-03-10 01:00:00 12.3 4 Norte 10 Norte 0 -- -- 55
2020-03-10 00:00:00 12.7 4 Noroeste 9 Sudoeste 0 -- -- 54
2020-03-09 23:00:00 12.4 5 Sudoeste 9 Sudoeste 0 -- -- 63
2020-03-09 22:00:00 13.4 0 Calma 11 Noroeste 0 -- -- 57
2020-03-09 21:00:00 13.2 3 Norte 9 Norte 0 -- -- 64
2020-03-09 20:00:00 13.2 3 Norte 6 Noroeste 0 -- -- 66
2020-03-09 19:00:00 14.2 2 Sudoeste 5 Sudeste 0 -- -- 63
2020-03-09 18:00:00 17 2 Sudeste 11 Sudeste 0 -- -- 54
2020-03-09 17:00:00 18.4 4 Sudeste 13 Sudeste 0 -- -- 50
2020-03-09 16:00:00 18.3 4 Sur 14 Este 0 -- -- 53
2020-03-09 15:00:00 18.3 4 Sudeste 13 Sur 0 -- -- 53
2020-03-09 14:00:00 16.9 5 Sur 13 Sur 0 -- -- 56
2020-03-09 13:00:00 16.6 5 Sudeste 13 Sudeste 0 -- -- 58
2020-03-09 12:00:00 15.4 5 Este 12 Este 0 -- -- 63
2020-03-09 11:00:00 13.8 4 Sudeste 15 Este 0 -- -- 66
2020-03-09 10:00:00 11.4 5 Este 11 Este 0 -- -- 73
2020-03-09 09:00:00 8.2 4 Nordeste 9 Norte 0 -- -- 85
2020-03-09 08:00:00 6.3 0 Calma 8 Nordeste 0 -- -- 93
2020-03-09 07:00:00 6.3 0 Calma 6 Nordeste 0 -- -- 92
2020-03-09 06:00:00 7.1 3 Norte 12 Este 0 -- -- 88
2020-03-09 05:00:00 8.3 4 Este 31 Norte 0 -- -- 83
2020-03-09 04:00:00 12.2 8 Norte 28 Norte 0 -- -- 41
2020-03-09 03:00:00 11.7 6 Norte 20 Nordeste 0 -- -- 48
2020-03-09 02:00:00 7.6 4 Sudoeste 9 Norte 0 -- -- 84
2020-03-09 01:00:00 9 4 Sudoeste 11 Oeste 0 -- -- 79
2020-03-09 00:00:00 9.3 4 Este 20 Norte 0 -- -- 79